Weather History for Jacksonville, IL

Change the Weather History Date:

Saturday, April 6, 2013

  Actual Average (KSPI) Record (KSPI)
Temperature  
Mean Temperature 62 °F 50 °F  
Max Temperature 74 °F 61 °F 85 °F (1967)
Min Temperature 50 °F 39 °F 19 °F (1982)
Degree Days  
Heating Degree Days 3 15  
Month to date heating degree days 97  
Since 1 July heating degree days 5079  
Cooling Degree Days 0 0  
Month to date cooling degree days 0  
Year to date cooling degree days 2  
Growing Degree Days 12 (Base 50)    
Moisture  
Dew Point 39 °F    
Average Humidity 43    
Maximum Humidity 62    
Minimum Humidity 24    
Precipitation  
Precipitation 0.00 in 0.10 in 2.25 in (1926)
Month to date precipitation 0.61  
Year to date precipitation 6.87  
Snow  
Snow 0.00 in 0.00 in 1.00 in (1977)
Month to date snowfall 0.1  
Since 1 July snowfall 20.7  
Snow Depth -    
Sea Level Pressure  
Sea Level Pressure 29.85 in    
Wind  
Wind Speed 14 mph (South)    
Max Wind Speed 28 mph    
Max Gust Speed 39 mph    
Visibility 10 miles    
Events Rain , Thunderstorm    
T = Trace of Precipitation, MM = Missing Value Source: NWS Daily Summary

Daily Weather History Graph

Daily Weather History Graph

Search for Another Location

Airport:

Trip Planner

Search our weather history database for the weather conditions in past years. The results will help you decide how hot, cold, wet, or windy it might be!

Date:

Astronomy

Apr. 06, 2013 Rise Set
Actual Time 6:36 AM CDT 7:30 PM CDT
Civil Twilight 6:09 AM CDT 7:57 PM CDT
Nautical Twilight 5:36 AM CDT 8:30 PM CDT
Astronomical Twilight 5:03 AM CDT 9:04 PM CDT
Moon 4:20 AM CDT (4/6) 3:59 PM CDT (4/6)
Length of Visible Light 13h 48m
Length of Day
12h 53m
Waning Crescent, 15% of the Moon is Illuminated
Apr 6
Waning Crescent
Apr 10
New
Apr 18
First Quarter
Apr 25
Full
May 2
Last Quarter

Hourly Weather History & Observations

Time (CDT) Temp. Dew Point Humidity Pressure Visibility Wind Dir Wind Speed Gust Speed Precip Events Conditions
12:15 AM 51.4 °F 34.0 °F 51% 30.04 in 10.0 mi ESE 12.7 mph - N/A   Clear
12:35 AM 51.3 °F 34.0 °F 52% 30.04 in 10.0 mi ESE 12.7 mph - N/A   Clear
12:55 AM 51.1 °F 34.3 °F 53% 30.03 in 10.0 mi ESE 13.8 mph - N/A   Clear
1:15 AM 50.9 °F 35.1 °F 55% 30.04 in 10.0 mi ESE 11.5 mph 17.3 mph N/A   Clear
1:35 AM 50.9 °F 35.4 °F 55% 30.04 in 10.0 mi ESE 11.5 mph - N/A   Clear
1:55 AM 50.7 °F 36.0 °F 57% 30.03 in 10.0 mi ESE 11.5 mph - N/A   Clear
2:15 AM 50.9 °F 36.1 °F 57% 30.03 in 10.0 mi ESE 12.7 mph - N/A   Clear
2:35 AM 50.4 °F 36.5 °F 59% 30.02 in 10.0 mi ESE 11.5 mph - N/A   Clear
2:55 AM 50.0 °F 36.7 °F 60% 30.01 in 10.0 mi ESE 11.5 mph - N/A   Clear
3:15 AM 50.0 °F 37.4 °F 62% 30.00 in 10.0 mi SE 9.2 mph - N/A   Clear
3:35 AM 50.0 °F 37.2 °F 62% 29.99 in 10.0 mi ESE 9.2 mph - N/A   Clear
3:55 AM 50.0 °F 37.2 °F 62% 29.99 in 10.0 mi SE 8.1 mph - N/A   Clear
4:15 AM 50.0 °F 37.0 °F 61% 29.98 in 10.0 mi ESE 9.2 mph - N/A   Clear
4:35 AM 52.0 °F 36.0 °F 54% 29.98 in 10.0 mi SE 12.7 mph - N/A   Clear
4:55 AM 52.2 °F 36.1 °F 54% 29.97 in 10.0 mi SE 12.7 mph - N/A   Clear
5:15 AM 52.9 °F 36.0 °F 53% 29.97 in 10.0 mi SE 10.4 mph 17.3 mph N/A   Clear
5:35 AM 53.6 °F 35.6 °F 51% 29.97 in 10.0 mi SSE 13.8 mph 19.6 mph N/A   Clear
5:55 AM 53.6 °F 36.1 °F 52% 29.96 in 10.0 mi SSE 12.7 mph - N/A   Clear
6:15 AM 53.6 °F 36.3 °F 52% 29.96 in 10.0 mi SSE 13.8 mph 21.9 mph N/A   Clear
6:35 AM 53.4 °F 36.3 °F 52% 29.96 in 10.0 mi SSE 11.5 mph - N/A   Clear
6:55 AM 53.4 °F 36.7 °F 53% 29.97 in 10.0 mi SSE 11.5 mph 17.3 mph N/A   Clear
7:15 AM 53.6 °F 37.0 °F 53% 29.97 in 10.0 mi SSE 11.5 mph - N/A   Clear
7:35 AM 53.6 °F 37.4 °F 54% 29.96 in 10.0 mi SSE 13.8 mph - N/A   Clear
7:55 AM 55.2 °F 37.8 °F 52% 29.96 in 10.0 mi SSE 13.8 mph 19.6 mph N/A   Clear
8:15 AM 56.3 °F 37.8 °F 50% 29.96 in 10.0 mi SSE 13.8 mph 19.6 mph N/A   Clear
8:35 AM 58.1 °F 38.7 °F 48% 29.95 in 10.0 mi SSE 17.3 mph 20.7 mph N/A   Clear
8:55 AM 59.4 °F 38.8 °F 47% 29.94 in 10.0 mi SSE 13.8 mph 24.2 mph N/A   Clear
9:15 AM 59.9 °F 38.8 °F 46% 29.93 in 10.0 mi South 17.3 mph 25.3 mph N/A   Clear
9:35 AM 61.2 °F 38.8 °F 44% 29.92 in 10.0 mi South 17.3 mph 26.5 mph N/A   Clear
9:55 AM 61.7 °F 39.0 °F 43% 29.91 in 10.0 mi South 16.1 mph 24.2 mph N/A   Clear
10:15 AM 62.6 °F 39.4 °F 42% 29.90 in 10.0 mi South 21.9 mph 25.3 mph N/A   Clear
10:35 AM 64.4 °F 39.7 °F 40% 29.89 in 10.0 mi South 21.9 mph 25.3 mph N/A   Clear
10:55 AM 64.8 °F 38.8 °F 38% 29.90 in 10.0 mi South 18.4 mph 29.9 mph N/A   Clear
11:15 AM 66.7 °F 39.2 °F 36% 29.87 in 10.0 mi South 21.9 mph 28.8 mph N/A   Clear
11:35 AM 68.9 °F 39.2 °F 34% 29.86 in 10.0 mi South 24.2 mph 34.5 mph N/A   Clear
11:55 AM 67.3 °F 37.6 °F 34% 29.85 in 10.0 mi South 27.6 mph 34.5 mph N/A   Clear
12:15 PM 66.7 °F 36.7 °F 33% 29.82 in 10.0 mi South 23.0 mph 33.4 mph N/A   Clear
12:35 PM 70.0 °F 37.8 °F 31% 29.83 in 10.0 mi South 19.6 mph 28.8 mph N/A   Clear
12:55 PM 72.9 °F 38.1 °F 28% 29.81 in 10.0 mi South 24.2 mph 39.1 mph N/A   Clear
1:15 PM 72.5 °F 37.6 °F 28% 29.80 in 10.0 mi South 27.6 mph 38.0 mph N/A   Clear
1:35 PM 72.3 °F 37.2 °F 28% 29.78 in 10.0 mi South 19.6 mph 33.4 mph N/A   Clear
1:55 PM 72.5 °F 36.1 °F 27% 29.76 in 10.0 mi South 27.6 mph 35.7 mph N/A   Clear
2:15 PM 72.9 °F 34.5 °F 25% 29.75 in 10.0 mi South 26.5 mph 34.5 mph N/A   Clear
2:35 PM 73.2 °F 34.2 °F 24% 29.75 in 10.0 mi South 27.6 mph 35.7 mph N/A   Clear
2:55 PM 72.5 °F 35.2 °F 26% 29.74 in 10.0 mi South 19.6 mph 33.4 mph N/A   Clear
3:15 PM 73.2 °F 36.1 °F 26% 29.73 in 10.0 mi South 26.5 mph 33.4 mph N/A   Clear
3:35 PM 72.9 °F 36.9 °F 27% 29.71 in 10.0 mi South 23.0 mph 28.8 mph N/A   Clear
3:55 PM 72.0 °F 37.6 °F 29% 29.70 in 10.0 mi South 20.7 mph 28.8 mph N/A   Clear
4:15 PM 72.9 °F 38.1 °F 28% 29.70 in 10.0 mi South 21.9 mph 31.1 mph N/A   Clear
4:35 PM 72.7 °F 38.3 °F 29% 29.71 in 10.0 mi South 19.6 mph 23.0 mph N/A   Clear
4:55 PM 72.5 °F 37.0 °F 27% 29.70 in 10.0 mi South 20.7 mph 25.3 mph N/A   Clear
5:15 PM 72.5 °F 36.9 °F 27% 29.69 in 10.0 mi South 19.6 mph 32.2 mph N/A   Clear
5:35 PM 74.3 °F 38.1 °F 27% 29.69 in 10.0 mi South 13.8 mph 23.0 mph N/A   Clear
5:55 PM 72.7 °F 37.6 °F 28% 29.70 in 10.0 mi South 18.4 mph 23.0 mph N/A   Clear
6:15 PM 71.1 °F 38.3 °F 30% 29.70 in 10.0 mi South 12.7 mph - N/A   Clear
6:35 PM 71.8 °F 39.4 °F 31% 29.70 in 10.0 mi SSW 13.8 mph 21.9 mph N/A   Clear
6:55 PM 72.1 °F 39.7 °F 31% 29.71 in 10.0 mi SSW 11.5 mph - N/A   Scattered Clouds
7:15 PM 71.1 °F 39.7 °F 32% 29.71 in 10.0 mi SSW 10.4 mph - N/A   Overcast
7:35 PM 69.8 °F 39.6 °F 33% 29.71 in 10.0 mi South 8.1 mph - N/A   Overcast
7:55 PM 68.5 °F 39.7 °F 35% 29.71 in 10.0 mi South 6.9 mph - N/A   Overcast
8:15 PM 68.0 °F 40.3 °F 36% 29.71 in 10.0 mi South 10.4 mph - N/A   Overcast
8:35 PM 67.1 °F 41.2 °F 39% 29.70 in 10.0 mi South 10.4 mph - N/A   Mostly Cloudy
8:55 PM 65.3 °F 42.1 °F 43% 29.71 in 10.0 mi South 8.1 mph - N/A   Scattered Clouds
9:15 PM 64.4 °F 43.2 °F 46% 29.72 in 10.0 mi South 8.1 mph - N/A   Clear
9:35 PM 63.5 °F 43.9 °F 49% 29.72 in 10.0 mi South 8.1 mph - N/A   Mostly Cloudy
9:55 PM 64.9 °F 44.6 °F 48% 29.73 in 10.0 mi SSW 5.8 mph - N/A Thunderstorm Overcast
10:15 PM 63.5 °F 47.5 °F 56% 29.74 in 10.0 mi SW 6.9 mph - N/A Rain Light Rain
10:35 PM 64.4 °F 48.0 °F 55% 29.75 in 10.0 mi SW 11.5 mph - N/A   Mostly Cloudy
10:55 PM 64.6 °F 49.5 °F 58% 29.75 in 10.0 mi WSW 11.5 mph - N/A   Scattered Clouds
11:15 PM 64.8 °F 50.0 °F 59% 29.76 in 10.0 mi WSW 10.4 mph - N/A   Clear
11:35 PM 66.6 °F 49.1 °F 53% 29.77 in 10.0 mi WSW 10.4 mph 19.6 mph N/A   Clear
11:55 PM 63.5 °F 49.1 °F 59% 29.79 in 10.0 mi West 9.2 mph - N/A   Clear